sensor_id;sensor_type;location;lat;lon;timestamp;temperature;humidity
52245;DHT22;55759;51.586;-1.758;2022-08-11T00:01:48;20.80;53.90
52245;DHT22;55759;51.586;-1.758;2022-08-11T00:04:15;20.80;53.70
52245;DHT22;55759;51.586;-1.758;2022-08-11T00:06:41;20.70;53.90
52245;DHT22;55759;51.586;-1.758;2022-08-11T00:09:14;20.60;54.00
52245;DHT22;55759;51.586;-1.758;2022-08-11T00:11:50;20.60;54.10
52245;DHT22;55759;51.586;-1.758;2022-08-11T00:14:29;20.60;53.90
52245;DHT22;55759;51.586;-1.758;2022-08-11T00:17:00;20.50;53.90
52245;DHT22;55759;51.586;-1.758;2022-08-11T00:19:27;20.50;53.80
52245;DHT22;55759;51.586;-1.758;2022-08-11T00:21:53;20.50;53.90
52245;DHT22;55759;51.586;-1.758;2022-08-11T00:24:20;20.50;53.90
52245;DHT22;55759;51.586;-1.758;2022-08-11T00:26:47;20.50;53.90
52245;DHT22;55759;51.586;-1.758;2022-08-11T00:29:13;20.50;54.00
52245;DHT22;55759;51.586;-1.758;2022-08-11T00:31:42;20.40;54.10
52245;DHT22;55759;51.586;-1.758;2022-08-11T00:34:09;20.40;54.40
52245;DHT22;55759;51.586;-1.758;2022-08-11T00:39:07;20.30;54.80
52245;DHT22;55759;51.586;-1.758;2022-08-11T00:41:36;20.20;54.90
52245;DHT22;55759;51.586;-1.758;2022-08-11T01:22:28;19.30;58.00
52245;DHT22;55759;51.586;-1.758;2022-08-11T01:30:20;19.10;58.60
52245;DHT22;55759;51.586;-1.758;2022-08-11T01:48:44;18.70;59.60
52245;DHT22;55759;51.586;-1.758;2022-08-11T01:51:32;18.70;59.70
52245;DHT22;55759;51.586;-1.758;2022-08-11T02:04:39;18.30;60.20
52245;DHT22;55759;51.586;-1.758;2022-08-11T02:12:57;18.10;61.00
52245;DHT22;55759;51.586;-1.758;2022-08-11T02:15:29;18.10;61.50
52245;DHT22;55759;51.586;-1.758;2022-08-11T02:20:26;18.00;61.80
52245;DHT22;55759;51.586;-1.758;2022-08-11T02:23:20;18.00;62.00
52245;DHT22;55759;51.586;-1.758;2022-08-11T02:26:06;17.90;62.10
52245;DHT22;55759;51.586;-1.758;2022-08-11T02:28:48;17.80;62.30
52245;DHT22;55759;51.586;-1.758;2022-08-11T02:34:08;17.70;63.10
52245;DHT22;55759;51.586;-1.758;2022-08-11T02:36:53;17.70;63.40
52245;DHT22;55759;51.586;-1.758;2022-08-11T02:39:19;17.60;63.60
52245;DHT22;55759;51.586;-1.758;2022-08-11T02:47:53;17.50;64.10
52245;DHT22;55759;51.586;-1.758;2022-08-11T02:50:40;17.50;64.30
52245;DHT22;55759;51.586;-1.758;2022-08-11T02:53:12;17.40;64.40
52245;DHT22;55759;51.586;-1.758;2022-08-11T03:03:30;17.20;64.90
52245;DHT22;55759;51.586;-1.758;2022-08-11T03:06:03;17.10;65.10
52245;DHT22;55759;51.586;-1.758;2022-08-11T03:11:25;17.00;65.40
52245;DHT22;55759;51.586;-1.758;2022-08-11T03:14:16;17.00;65.60
52245;DHT22;55759;51.586;-1.758;2022-08-11T03:17:19;16.90;65.90
52245;DHT22;55759;51.586;-1.758;2022-08-11T03:19:52;16.80;66.00
52245;DHT22;55759;51.586;-1.758;2022-08-11T03:22:25;16.80;66.20
52245;DHT22;55759;51.586;-1.758;2022-08-11T03:24:56;16.70;66.60
52245;DHT22;55759;51.586;-1.758;2022-08-11T03:27:33;16.70;66.60
52245;DHT22;55759;51.586;-1.758;2022-08-11T03:30:05;16.70;66.60
52245;DHT22;55759;51.586;-1.758;2022-08-11T03:32:56;16.60;66.80
52245;DHT22;55759;51.586;-1.758;2022-08-11T03:38:21;16.60;67.20
52245;DHT22;55759;51.586;-1.758;2022-08-11T03:41:03;16.50;67.40
52245;DHT22;55759;51.586;-1.758;2022-08-11T03:43:59;16.50;67.50
52245;DHT22;55759;51.586;-1.758;2022-08-11T03:46:44;16.40;67.70
52245;DHT22;55759;51.586;-1.758;2022-08-11T03:49:22;16.40;67.80
52245;DHT22;55759;51.586;-1.758;2022-08-11T03:51:52;16.40;67.80
52245;DHT22;55759;51.586;-1.758;2022-08-11T03:54:23;16.30;67.80
52245;DHT22;55759;51.586;-1.758;2022-08-11T04:05:04;16.20;68.70
52245;DHT22;55759;51.586;-1.758;2022-08-11T04:23:57;16.00;69.70
52245;DHT22;55759;51.586;-1.758;2022-08-11T04:29:13;15.90;69.80
52245;DHT22;55759;51.586;-1.758;2022-08-11T04:31:56;15.90;69.90
52245;DHT22;55759;51.586;-1.758;2022-08-11T04:37:10;15.80;70.40
52245;DHT22;55759;51.586;-1.758;2022-08-11T04:51:05;15.70;71.80
52245;DHT22;55759;51.586;-1.758;2022-08-11T04:56:42;15.70;72.00
52245;DHT22;55759;51.586;-1.758;2022-08-11T05:05:08;15.70;72.00
52245;DHT22;55759;51.586;-1.758;2022-08-11T05:10:51;15.70;72.00
52245;DHT22;55759;51.586;-1.758;2022-08-11T05:13:31;15.60;72.20
52245;DHT22;55759;51.586;-1.758;2022-08-11T05:16:17;15.70;72.30
52245;DHT22;55759;51.586;-1.758;2022-08-11T05:19:02;15.70;72.30
52245;DHT22;55759;51.586;-1.758;2022-08-11T05:21:51;15.70;72.40
52245;DHT22;55759;51.586;-1.758;2022-08-11T05:24:42;15.80;72.40
52245;DHT22;55759;51.586;-1.758;2022-08-11T05:27:48;15.80;72.50
52245;DHT22;55759;51.586;-1.758;2022-08-11T05:30:31;15.90;72.50
52245;DHT22;55759;51.586;-1.758;2022-08-11T05:33:20;16.00;72.40
52245;DHT22;55759;51.586;-1.758;2022-08-11T05:38:33;16.10;72.40
52245;DHT22;55759;51.586;-1.758;2022-08-11T05:41:21;16.20;72.20
52245;DHT22;55759;51.586;-1.758;2022-08-11T05:44:06;16.30;71.90
52245;DHT22;55759;51.586;-1.758;2022-08-11T05:46:50;16.40;71.80
52245;DHT22;55759;51.586;-1.758;2022-08-11T05:49:35;16.50;71.60
52245;DHT22;55759;51.586;-1.758;2022-08-11T05:52:22;16.60;71.40
52245;DHT22;55759;51.586;-1.758;2022-08-11T05:55:08;16.70;71.20
52245;DHT22;55759;51.586;-1.758;2022-08-11T05:57:56;16.80;71.00
52245;DHT22;55759;51.586;-1.758;2022-08-11T06:00:23;16.90;70.80
52245;DHT22;55759;51.586;-1.758;2022-08-11T06:02:53;17.00;70.60
52245;DHT22;55759;51.586;-1.758;2022-08-11T06:05:19;17.10;70.40
52245;DHT22;55759;51.586;-1.758;2022-08-11T06:07:46;17.20;70.30
52245;DHT22;55759;51.586;-1.758;2022-08-11T06:10:12;17.30;70.10
52245;DHT22;55759;51.586;-1.758;2022-08-11T06:12:39;17.40;69.80
52245;DHT22;55759;51.586;-1.758;2022-08-11T06:15:06;17.40;69.60
52245;DHT22;55759;51.586;-1.758;2022-08-11T06:17:33;17.60;69.50
52245;DHT22;55759;51.586;-1.758;2022-08-11T06:22:26;17.80;68.50
52245;DHT22;55759;51.586;-1.758;2022-08-11T06:24:54;17.80;68.20
52245;DHT22;55759;51.586;-1.758;2022-08-11T06:27:20;18.00;68.00
52245;DHT22;55759;51.586;-1.758;2022-08-11T06:29:48;18.10;67.40
52245;DHT22;55759;51.586;-1.758;2022-08-11T06:32:14;18.20;67.10
52245;DHT22;55759;51.586;-1.758;2022-08-11T06:42:42;18.70;65.60
52245;DHT22;55759;51.586;-1.758;2022-08-11T06:47:45;19.00;65.00
52245;DHT22;55759;51.586;-1.758;2022-08-11T06:50:17;19.10;64.40
52245;DHT22;55759;51.586;-1.758;2022-08-11T06:53:05;19.30;64.00
52245;DHT22;55759;51.586;-1.758;2022-08-11T06:55:34;19.50;63.40
52245;DHT22;55759;51.586;-1.758;2022-08-11T06:58:20;19.60;62.70
52245;DHT22;55759;51.586;-1.758;2022-08-11T07:01:06;19.80;61.90
52245;DHT22;55759;51.586;-1.758;2022-08-11T07:03:35;20.00;61.50
52245;DHT22;55759;51.586;-1.758;2022-08-11T07:09:04;20.20;61.10
52245;DHT22;55759;51.586;-1.758;2022-08-11T07:14:24;20.50;60.20
52245;DHT22;55759;51.586;-1.758;2022-08-11T07:17:19;20.60;59.90
52245;DHT22;55759;51.586;-1.758;2022-08-11T07:19:50;20.80;59.40
52245;DHT22;55759;51.586;-1.758;2022-08-11T07:22:36;20.90;58.90
52245;DHT22;55759;51.586;-1.758;2022-08-11T07:25:22;21.00;58.60
52245;DHT22;55759;51.586;-1.758;2022-08-11T07:28:11;21.10;58.20
52245;DHT22;55759;51.586;-1.758;2022-08-11T07:30:58;21.20;58.20
52245;DHT22;55759;51.586;-1.758;2022-08-11T07:33:27;21.30;58.20
52245;DHT22;55759;51.586;-1.758;2022-08-11T07:35:55;21.30;58.20
52245;DHT22;55759;51.586;-1.758;2022-08-11T07:38:21;21.50;57.50
52245;DHT22;55759;51.586;-1.758;2022-08-11T07:40:48;21.60;57.10
52245;DHT22;55759;51.586;-1.758;2022-08-11T07:43:15;21.70;56.80
52245;DHT22;55759;51.586;-1.758;2022-08-11T07:45:41;21.70;56.70
52245;DHT22;55759;51.586;-1.758;2022-08-11T07:48:25;21.90;56.00
52245;DHT22;55759;51.586;-1.758;2022-08-11T07:51:09;22.00;55.90
52245;DHT22;55759;51.586;-1.758;2022-08-11T07:53:53;22.10;55.50
52245;DHT22;55759;51.586;-1.758;2022-08-11T07:56:20;22.10;55.10
52245;DHT22;55759;51.586;-1.758;2022-08-11T07:58:46;22.20;54.90
52245;DHT22;55759;51.586;-1.758;2022-08-11T08:01:30;22.20;54.70
52245;DHT22;55759;51.586;-1.758;2022-08-11T08:04:15;22.40;54.30
52245;DHT22;55759;51.586;-1.758;2022-08-11T08:07:00;22.50;54.10
52245;DHT22;55759;51.586;-1.758;2022-08-11T08:09:45;22.60;53.60
52245;DHT22;55759;51.586;-1.758;2022-08-11T08:12:30;22.80;53.80
52245;DHT22;55759;51.586;-1.758;2022-08-11T08:15:14;22.90;52.90
52245;DHT22;55759;51.586;-1.758;2022-08-11T08:18:00;23.00;52.80
52245;DHT22;55759;51.586;-1.758;2022-08-11T08:20:28;23.10;52.10
52245;DHT22;55759;51.586;-1.758;2022-08-11T08:22:55;23.10;52.00
52245;DHT22;55759;51.586;-1.758;2022-08-11T08:25:25;23.20;51.10
52245;DHT22;55759;51.586;-1.758;2022-08-11T08:27:51;23.40;51.10
52245;DHT22;55759;51.586;-1.758;2022-08-11T08:30:17;23.50;50.40
52245;DHT22;55759;51.586;-1.758;2022-08-11T08:33:02;23.50;50.60
52245;DHT22;55759;51.586;-1.758;2022-08-11T08:35:28;23.60;50.70
52245;DHT22;55759;51.586;-1.758;2022-08-11T08:37:55;23.70;49.90
52245;DHT22;55759;51.586;-1.758;2022-08-11T08:40:21;23.80;49.60
52245;DHT22;55759;51.586;-1.758;2022-08-11T08:42:48;23.90;49.70
52245;DHT22;55759;51.586;-1.758;2022-08-11T08:45:17;24.00;49.00
52245;DHT22;55759;51.586;-1.758;2022-08-11T08:50:15;24.20;49.20
52245;DHT22;55759;51.586;-1.758;2022-08-11T08:53:02;24.40;48.90
52245;DHT22;55759;51.586;-1.758;2022-08-11T08:55:30;24.50;48.40
52245;DHT22;55759;51.586;-1.758;2022-08-11T08:57:56;24.60;48.30
52245;DHT22;55759;51.586;-1.758;2022-08-11T09:00:24;24.60;48.40
52245;DHT22;55759;51.586;-1.758;2022-08-11T09:02:53;24.90;48.00
52245;DHT22;55759;51.586;-1.758;2022-08-11T09:05:19;25.00;47.90
52245;DHT22;55759;51.586;-1.758;2022-08-11T09:07:46;25.10;47.90
52245;DHT22;55759;51.586;-1.758;2022-08-11T09:10:16;25.10;47.50
52245;DHT22;55759;51.586;-1.758;2022-08-11T09:12:43;25.30;47.60
52245;DHT22;55759;51.586;-1.758;2022-08-11T09:15:09;25.40;47.10
52245;DHT22;55759;51.586;-1.758;2022-08-11T09:17:38;25.50;46.90
52245;DHT22;55759;51.586;-1.758;2022-08-11T09:20:25;25.60;47.30
52245;DHT22;55759;51.586;-1.758;2022-08-11T09:22:51;25.70;46.20
52245;DHT22;55759;51.586;-1.758;2022-08-11T09:25:38;25.90;46.10
52245;DHT22;55759;51.586;-1.758;2022-08-11T09:28:23;26.10;45.20
52245;DHT22;55759;51.586;-1.758;2022-08-11T09:30:53;26.20;44.70
52245;DHT22;55759;51.586;-1.758;2022-08-11T09:33:20;26.30;45.10
52245;DHT22;55759;51.586;-1.758;2022-08-11T09:35:47;26.40;44.30
52245;DHT22;55759;51.586;-1.758;2022-08-11T09:38:16;26.50;44.00
52245;DHT22;55759;51.586;-1.758;2022-08-11T09:41:02;26.60;43.20
52245;DHT22;55759;51.586;-1.758;2022-08-11T09:43:29;26.60;42.90
52245;DHT22;55759;51.586;-1.758;2022-08-11T09:46:13;26.60;43.00
52245;DHT22;55759;51.586;-1.758;2022-08-11T09:48:42;26.70;42.90
52245;DHT22;55759;51.586;-1.758;2022-08-11T09:51:09;26.80;43.20
52245;DHT22;55759;51.586;-1.758;2022-08-11T09:53:39;26.90;42.90
52245;DHT22;55759;51.586;-1.758;2022-08-11T09:56:06;27.10;42.40
52245;DHT22;55759;51.586;-1.758;2022-08-11T09:58:51;27.10;42.40
52245;DHT22;55759;51.586;-1.758;2022-08-11T10:01:19;27.30;42.90
52245;DHT22;55759;51.586;-1.758;2022-08-11T10:04:06;27.50;42.00
52245;DHT22;55759;51.586;-1.758;2022-08-11T10:06:56;27.60;41.80
52245;DHT22;55759;51.586;-1.758;2022-08-11T10:09:33;27.70;41.60
52245;DHT22;55759;51.586;-1.758;2022-08-11T10:12:00;27.80;41.20
52245;DHT22;55759;51.586;-1.758;2022-08-11T10:14:27;28.00;40.60
52245;DHT22;55759;51.586;-1.758;2022-08-11T10:17:13;28.10;40.20
52245;DHT22;55759;51.586;-1.758;2022-08-11T10:19:39;28.20;40.30
52245;DHT22;55759;51.586;-1.758;2022-08-11T10:22:09;28.30;39.60
52245;DHT22;55759;51.586;-1.758;2022-08-11T10:24:54;28.30;39.50
52245;DHT22;55759;51.586;-1.758;2022-08-11T10:27:38;28.40;39.40
52245;DHT22;55759;51.586;-1.758;2022-08-11T10:30:06;28.60;38.80
52245;DHT22;55759;51.586;-1.758;2022-08-11T10:32:50;28.70;38.70
52245;DHT22;55759;51.586;-1.758;2022-08-11T10:35:35;28.90;38.10
52245;DHT22;55759;51.586;-1.758;2022-08-11T10:38:01;29.00;37.40
52245;DHT22;55759;51.586;-1.758;2022-08-11T10:40:27;29.10;38.00
52245;DHT22;55759;51.586;-1.758;2022-08-11T10:42:54;29.30;37.60
52245;DHT22;55759;51.586;-1.758;2022-08-11T10:45:31;29.50;37.20
52245;DHT22;55759;51.586;-1.758;2022-08-11T10:48:16;29.60;36.70
52245;DHT22;55759;51.586;-1.758;2022-08-11T10:50:48;29.70;36.10
52245;DHT22;55759;51.586;-1.758;2022-08-11T10:53:34;29.90;36.30
52245;DHT22;55759;51.586;-1.758;2022-08-11T10:56:19;30.10;36.00
52245;DHT22;55759;51.586;-1.758;2022-08-11T10:59:04;30.30;35.80
52245;DHT22;55759;51.586;-1.758;2022-08-11T11:01:33;30.50;34.70
52245;DHT22;55759;51.586;-1.758;2022-08-11T11:04:01;30.90;34.10
52245;DHT22;55759;51.586;-1.758;2022-08-11T11:06:45;31.50;33.20
52245;DHT22;55759;51.586;-1.758;2022-08-11T11:09:17;32.20;32.00
52245;DHT22;55759;51.586;-1.758;2022-08-11T11:11:47;33.40;31.20
52245;DHT22;55759;51.586;-1.758;2022-08-11T11:14:32;34.70;29.80
52245;DHT22;55759;51.586;-1.758;2022-08-11T11:17:27;36.40;27.40
52245;DHT22;55759;51.586;-1.758;2022-08-11T11:20:13;37.90;25.30
52245;DHT22;55759;51.586;-1.758;2022-08-11T11:22:39;39.20;23.80
52245;DHT22;55759;51.586;-1.758;2022-08-11T11:27:59;41.60;20.80
52245;DHT22;55759;51.586;-1.758;2022-08-11T11:36:44;45.50;18.30
52245;DHT22;55759;51.586;-1.758;2022-08-11T11:39:05;46.40;17.50
52245;DHT22;55759;51.586;-1.758;2022-08-11T11:41:31;47.10;16.90
52245;DHT22;55759;51.586;-1.758;2022-08-11T11:43:57;48.00;16.20
52245;DHT22;55759;51.586;-1.758;2022-08-11T11:46:26;48.30;15.60
52245;DHT22;55759;51.586;-1.758;2022-08-11T11:48:53;48.30;15.60
52245;DHT22;55759;51.586;-1.758;2022-08-11T11:51:20;48.60;15.60
52245;DHT22;55759;51.586;-1.758;2022-08-11T11:53:46;49.50;15.30
52245;DHT22;55759;51.586;-1.758;2022-08-11T11:56:12;50.40;15.00
52245;DHT22;55759;51.586;-1.758;2022-08-11T11:58:38;51.10;14.30
52245;DHT22;55759;51.586;-1.758;2022-08-11T12:01:23;51.10;14.20
52245;DHT22;55759;51.586;-1.758;2022-08-11T12:03:51;50.90;14.00
52245;DHT22;55759;51.586;-1.758;2022-08-11T12:06:18;51.30;13.90
52245;DHT22;55759;51.586;-1.758;2022-08-11T12:08:43;52.00;13.30
52245;DHT22;55759;51.586;-1.758;2022-08-11T12:11:14;52.90;13.20
52245;DHT22;55759;51.586;-1.758;2022-08-11T12:14:00;53.70;12.80
52245;DHT22;55759;51.586;-1.758;2022-08-11T12:16:26;54.30;12.40
52245;DHT22;55759;51.586;-1.758;2022-08-11T12:18:53;54.40;12.10
52245;DHT22;55759;51.586;-1.758;2022-08-11T12:21:20;54.00;11.70
52245;DHT22;55759;51.586;-1.758;2022-08-11T12:23:47;53.50;11.70
52245;DHT22;55759;51.586;-1.758;2022-08-11T12:26:32;53.60;11.70
52245;DHT22;55759;51.586;-1.758;2022-08-11T12:29:23;54.00;12.00
52245;DHT22;55759;51.586;-1.758;2022-08-11T12:31:53;54.30;12.20
52245;DHT22;55759;51.586;-1.758;2022-08-11T12:34:19;54.90;12.20
52245;DHT22;55759;51.586;-1.758;2022-08-11T12:36:48;54.90;12.20
52245;DHT22;55759;51.586;-1.758;2022-08-11T12:39:16;54.60;12.20
52245;DHT22;55759;51.586;-1.758;2022-08-11T12:41:44;53.80;12.60
52245;DHT22;55759;51.586;-1.758;2022-08-11T12:44:29;53.60;12.60
52245;DHT22;55759;51.586;-1.758;2022-08-11T12:47:15;54.00;12.50
52245;DHT22;55759;51.586;-1.758;2022-08-11T12:49:47;54.10;12.70
52245;DHT22;55759;51.586;-1.758;2022-08-11T12:52:41;54.60;12.50
52245;DHT22;55759;51.586;-1.758;2022-08-11T12:55:09;54.70;12.40
52245;DHT22;55759;51.586;-1.758;2022-08-11T12:57:36;54.80;12.50
52245;DHT22;55759;51.586;-1.758;2022-08-11T13:00:21;55.50;11.60
52245;DHT22;55759;51.586;-1.758;2022-08-11T13:03:07;56.10;11.30
52245;DHT22;55759;51.586;-1.758;2022-08-11T13:05:52;56.70;11.10
52245;DHT22;55759;51.586;-1.758;2022-08-11T13:08:18;56.60;11.20
52245;DHT22;55759;51.586;-1.758;2022-08-11T13:10:45;56.70;10.90
52245;DHT22;55759;51.586;-1.758;2022-08-11T13:13:29;57.30;10.90
52245;DHT22;55759;51.586;-1.758;2022-08-11T13:15:55;58.10;11.00
52245;DHT22;55759;51.586;-1.758;2022-08-11T13:18:21;58.30;10.90
52245;DHT22;55759;51.586;-1.758;2022-08-11T13:20:48;58.70;10.70
52245;DHT22;55759;51.586;-1.758;2022-08-11T13:23:14;58.50;10.60
52245;DHT22;55759;51.586;-1.758;2022-08-11T13:25:40;58.10;10.60
52245;DHT22;55759;51.586;-1.758;2022-08-11T13:28:06;57.80;10.90
52245;DHT22;55759;51.586;-1.758;2022-08-11T13:30:32;58.00;10.60
52245;DHT22;55759;51.586;-1.758;2022-08-11T13:33:27;57.50;10.80
52245;DHT22;55759;51.586;-1.758;2022-08-11T13:35:53;56.70;11.00
52245;DHT22;55759;51.586;-1.758;2022-08-11T13:38:21;56.40;11.10
52245;DHT22;55759;51.586;-1.758;2022-08-11T13:40:48;56.60;11.30
52245;DHT22;55759;51.586;-1.758;2022-08-11T13:43:14;57.60;11.10
52245;DHT22;55759;51.586;-1.758;2022-08-11T13:45:40;58.50;10.70
52245;DHT22;55759;51.586;-1.758;2022-08-11T13:48:07;59.20;10.50
52245;DHT22;55759;51.586;-1.758;2022-08-11T13:50:33;59.90;10.20
52245;DHT22;55759;51.586;-1.758;2022-08-11T13:53:19;60.10;10.00
52245;DHT22;55759;51.586;-1.758;2022-08-11T13:55:45;60.00;10.10
52245;DHT22;55759;51.586;-1.758;2022-08-11T13:58:11;59.70;10.20
52245;DHT22;55759;51.586;-1.758;2022-08-11T14:00:37;59.60;10.10
52245;DHT22;55759;51.586;-1.758;2022-08-11T14:03:04;59.70;10.10
52245;DHT22;55759;51.586;-1.758;2022-08-11T14:05:35;59.50;10.10
52245;DHT22;55759;51.586;-1.758;2022-08-11T14:08:02;60.00;10.10
52245;DHT22;55759;51.586;-1.758;2022-08-11T14:10:29;60.30;9.90
52245;DHT22;55759;51.586;-1.758;2022-08-11T14:13:05;60.00;10.00
52245;DHT22;55759;51.586;-1.758;2022-08-11T14:15:50;60.10;10.10
52245;DHT22;55759;51.586;-1.758;2022-08-11T14:18:34;60.60;9.90
52245;DHT22;55759;51.586;-1.758;2022-08-11T14:21:04;60.30;9.90
52245;DHT22;55759;51.586;-1.758;2022-08-11T14:23:49;59.70;10.10
52245;DHT22;55759;51.586;-1.758;2022-08-11T14:26:19;59.80;10.10
52245;DHT22;55759;51.586;-1.758;2022-08-11T14:28:52;60.10;10.00
52245;DHT22;55759;51.586;-1.758;2022-08-11T14:31:19;60.30;10.10
52245;DHT22;55759;51.586;-1.758;2022-08-11T14:33:45;60.30;9.90
52245;DHT22;55759;51.586;-1.758;2022-08-11T14:36:11;60.10;9.80
52245;DHT22;55759;51.586;-1.758;2022-08-11T14:38:37;59.30;9.80
52245;DHT22;55759;51.586;-1.758;2022-08-11T14:41:03;58.70;10.20
52245;DHT22;55759;51.586;-1.758;2022-08-11T14:43:48;59.00;10.10
52245;DHT22;55759;51.586;-1.758;2022-08-11T14:46:33;59.30;10.00
52245;DHT22;55759;51.586;-1.758;2022-08-11T14:49:35;59.70;10.00
52245;DHT22;55759;51.586;-1.758;2022-08-11T14:52:05;60.10;9.90
52245;DHT22;55759;51.586;-1.758;2022-08-11T14:54:32;60.30;9.90
52245;DHT22;55759;51.586;-1.758;2022-08-11T14:57:16;60.00;10.00
52245;DHT22;55759;51.586;-1.758;2022-08-11T14:59:44;60.00;9.90
52245;DHT22;55759;51.586;-1.758;2022-08-11T15:02:12;60.00;9.90
52245;DHT22;55759;51.586;-1.758;2022-08-11T15:04:57;60.60;9.80
52245;DHT22;55759;51.586;-1.758;2022-08-11T15:07:24;60.80;9.80
52245;DHT22;55759;51.586;-1.758;2022-08-11T15:09:55;60.90;9.60
52245;DHT22;55759;51.586;-1.758;2022-08-11T15:12:21;58.80;9.70
52245;DHT22;55759;51.586;-1.758;2022-08-11T15:14:47;57.30;10.40
52245;DHT22;55759;51.586;-1.758;2022-08-11T15:17:31;57.60;10.70
52245;DHT22;55759;51.586;-1.758;2022-08-11T15:19:59;57.90;10.50
52245;DHT22;55759;51.586;-1.758;2022-08-11T15:22:44;58.20;10.60
52245;DHT22;55759;51.586;-1.758;2022-08-11T15:25:28;58.80;10.20
52245;DHT22;55759;51.586;-1.758;2022-08-11T15:27:55;58.70;10.20
52245;DHT22;55759;51.586;-1.758;2022-08-11T15:30:40;59.00;10.30
52245;DHT22;55759;51.586;-1.758;2022-08-11T15:33:25;59.20;10.10
52245;DHT22;55759;51.586;-1.758;2022-08-11T15:36:10;58.50;9.90
52245;DHT22;55759;51.586;-1.758;2022-08-11T15:39:00;57.60;10.30
52245;DHT22;55759;51.586;-1.758;2022-08-11T15:41:28;58.00;10.20
52245;DHT22;55759;51.586;-1.758;2022-08-11T15:44:12;58.50;10.20
52245;DHT22;55759;51.586;-1.758;2022-08-11T15:46:59;59.30;9.80
52245;DHT22;55759;51.586;-1.758;2022-08-11T15:49:35;59.90;9.60
52245;DHT22;55759;51.586;-1.758;2022-08-11T15:52:02;58.80;10.00
52245;DHT22;55759;51.586;-1.758;2022-08-11T15:54:29;57.60;10.50
52245;DHT22;55759;51.586;-1.758;2022-08-11T15:56:56;57.80;10.50
52245;DHT22;55759;51.586;-1.758;2022-08-11T15:59:23;58.40;10.40
52245;DHT22;55759;51.586;-1.758;2022-08-11T16:02:10;58.80;10.30
52245;DHT22;55759;51.586;-1.758;2022-08-11T16:04:52;59.30;10.20
52245;DHT22;55759;51.586;-1.758;2022-08-11T16:07:20;59.80;9.90
52245;DHT22;55759;51.586;-1.758;2022-08-11T16:10:07;59.30;9.90
52245;DHT22;55759;51.586;-1.758;2022-08-11T16:12:36;58.40;10.20
52245;DHT22;55759;51.586;-1.758;2022-08-11T16:15:04;58.00;10.20
52245;DHT22;55759;51.586;-1.758;2022-08-11T16:17:51;58.20;10.20
52245;DHT22;55759;51.586;-1.758;2022-08-11T16:20:21;57.80;10.30
52245;DHT22;55759;51.586;-1.758;2022-08-11T16:22:48;57.30;10.50
52245;DHT22;55759;51.586;-1.758;2022-08-11T16:25:18;56.80;10.60
52245;DHT22;55759;51.586;-1.758;2022-08-11T16:27:47;57.00;10.50
52245;DHT22;55759;51.586;-1.758;2022-08-11T16:30:13;56.80;10.60
52245;DHT22;55759;51.586;-1.758;2022-08-11T16:32:40;57.30;10.50
52245;DHT22;55759;51.586;-1.758;2022-08-11T16:35:17;56.90;10.40
52245;DHT22;55759;51.586;-1.758;2022-08-11T16:38:02;56.50;10.50
52245;DHT22;55759;51.586;-1.758;2022-08-11T16:40:48;57.00;10.60
52245;DHT22;55759;51.586;-1.758;2022-08-11T16:43:16;57.50;10.40
52245;DHT22;55759;51.586;-1.758;2022-08-11T16:46:02;58.00;10.10
52245;DHT22;55759;51.586;-1.758;2022-08-11T16:48:47;58.50;10.00
52245;DHT22;55759;51.586;-1.758;2022-08-11T16:51:13;58.80;9.80
52245;DHT22;55759;51.586;-1.758;2022-08-11T16:53:41;58.80;9.80
52245;DHT22;55759;51.586;-1.758;2022-08-11T16:56:08;58.20;10.10
52245;DHT22;55759;51.586;-1.758;2022-08-11T16:58:35;57.80;10.10
52245;DHT22;55759;51.586;-1.758;2022-08-11T17:01:21;57.30;10.30
52245;DHT22;55759;51.586;-1.758;2022-08-11T17:03:52;56.90;10.30
52245;DHT22;55759;51.586;-1.758;2022-08-11T17:06:37;56.50;10.40
52245;DHT22;55759;51.586;-1.758;2022-08-11T17:09:24;55.30;10.60
52245;DHT22;55759;51.586;-1.758;2022-08-11T17:12:09;55.00;10.80
52245;DHT22;55759;51.586;-1.758;2022-08-11T17:14:55;54.40;11.10
52245;DHT22;55759;51.586;-1.758;2022-08-11T17:17:32;54.90;11.10
52245;DHT22;55759;51.586;-1.758;2022-08-11T17:20:00;55.20;10.80
52245;DHT22;55759;51.586;-1.758;2022-08-11T17:22:27;54.50;11.10
52245;DHT22;55759;51.586;-1.758;2022-08-11T17:25:12;53.70;11.30
52245;DHT22;55759;51.586;-1.758;2022-08-11T17:27:39;53.60;11.40
52245;DHT22;55759;51.586;-1.758;2022-08-11T17:30:06;53.70;11.30
52245;DHT22;55759;51.586;-1.758;2022-08-11T17:32:53;53.90;11.50
52245;DHT22;55759;51.586;-1.758;2022-08-11T17:35:38;54.00;11.30
52245;DHT22;55759;51.586;-1.758;2022-08-11T17:38:17;54.00;11.40
52245;DHT22;55759;51.586;-1.758;2022-08-11T17:40:46;54.00;11.40
52245;DHT22;55759;51.586;-1.758;2022-08-11T17:43:31;53.90;11.40
52245;DHT22;55759;51.586;-1.758;2022-08-11T17:46:15;53.50;11.60
52245;DHT22;55759;51.586;-1.758;2022-08-11T17:48:59;53.50;11.50
52245;DHT22;55759;51.586;-1.758;2022-08-11T17:51:25;52.90;11.60
52245;DHT22;55759;51.586;-1.758;2022-08-11T17:54:12;52.30;11.80
52245;DHT22;55759;51.586;-1.758;2022-08-11T17:56:57;51.90;12.10
52245;DHT22;55759;51.586;-1.758;2022-08-11T17:59:41;51.90;12.00
52245;DHT22;55759;51.586;-1.758;2022-08-11T18:02:29;51.60;12.10
52245;DHT22;55759;51.586;-1.758;2022-08-11T18:05:15;51.20;12.30
52245;DHT22;55759;51.586;-1.758;2022-08-11T18:07:42;50.60;12.60
52245;DHT22;55759;51.586;-1.758;2022-08-11T18:10:28;49.90;12.90
52245;DHT22;55759;51.586;-1.758;2022-08-11T18:13:13;48.90;13.30
52245;DHT22;55759;51.586;-1.758;2022-08-11T18:15:58;48.00;13.70
52245;DHT22;55759;51.586;-1.758;2022-08-11T18:18:43;46.60;14.40
52245;DHT22;55759;51.586;-1.758;2022-08-11T18:21:27;45.00;15.30
52245;DHT22;55759;51.586;-1.758;2022-08-11T18:24:13;43.20;16.20
52245;DHT22;55759;51.586;-1.758;2022-08-11T18:26:59;41.70;17.30
52245;DHT22;55759;51.586;-1.758;2022-08-11T18:29:44;40.40;18.30
52245;DHT22;55759;51.586;-1.758;2022-08-11T18:32:31;39.40;19.30
52245;DHT22;55759;51.586;-1.758;2022-08-11T18:35:17;38.60;20.10
52245;DHT22;55759;51.586;-1.758;2022-08-11T18:38:02;37.70;20.90
52245;DHT22;55759;51.586;-1.758;2022-08-11T18:40:47;36.90;21.80
52245;DHT22;55759;51.586;-1.758;2022-08-11T18:43:33;36.10;22.60
52245;DHT22;55759;51.586;-1.758;2022-08-11T18:46:20;35.50;23.20
52245;DHT22;55759;51.586;-1.758;2022-08-11T18:49:07;34.90;23.90
52245;DHT22;55759;51.586;-1.758;2022-08-11T18:51:52;34.30;24.50
52245;DHT22;55759;51.586;-1.758;2022-08-11T18:54:38;33.90;25.10
52245;DHT22;55759;51.586;-1.758;2022-08-11T18:57:23;33.40;25.60
52245;DHT22;55759;51.586;-1.758;2022-08-11T19:00:08;33.00;26.10
52245;DHT22;55759;51.586;-1.758;2022-08-11T19:02:52;32.60;26.50
52245;DHT22;55759;51.586;-1.758;2022-08-11T19:05:38;32.40;26.90
52245;DHT22;55759;51.586;-1.758;2022-08-11T19:08:25;32.10;27.40
52245;DHT22;55759;51.586;-1.758;2022-08-11T19:11:10;31.80;27.70
52245;DHT22;55759;51.586;-1.758;2022-08-11T19:13:55;31.60;28.00
52245;DHT22;55759;51.586;-1.758;2022-08-11T19:16:40;31.40;28.60
52245;DHT22;55759;51.586;-1.758;2022-08-11T19:19:26;31.10;28.80